Time;durP1;ratioP1;P1;durP2;ratioP2;P2;SDS_P1;SDS_P2;PMS_P1;PMS_P2;Temp;Humidity;BMP_temperature;BMP_pressure;BME280_temperature;BME280_humidity;BME280_pressure;Samples;Min_cycle;Max_cycle;Signal;HPM_P1;HPM_P2
2021/04/16 00:02:26;;;;;;;12.37;4.87;;;16.30;28.30;;;;;;4373772;32;20130;-40
2021/04/16 00:04:53;;;;;;;32.40;7.45;;;16.20;28.60;;;;;;4372579;32;20065;-41
2021/04/16 00:07:19;;;;;;;31.62;9.85;;;16.10;29.10;;;;;;4373791;32;20533;-42
2021/04/16 00:09:45;;;;;;;25.77;14.23;;;15.90;29.50;;;;;;4373205;32;20172;-40
2021/04/16 00:12:12;;;;;;;42.22;14.38;;;15.80;29.60;;;;;;4373946;32;20068;-40
2021/04/16 00:14:39;;;;;;;32.00;12.98;;;15.70;29.60;;;;;;4374026;32;20090;-40
2021/04/16 00:17:05;;;;;;;29.02;11.77;;;15.60;29.80;;;;;;4347425;32;20148;-39
2021/04/16 00:19:32;;;;;;;27.10;6.75;;;15.50;29.80;;;;;;4373989;32;20070;-40
2021/04/16 00:21:58;;;;;;;18.37;5.43;;;15.50;30.00;;;;;;4373943;32;20116;-40
2021/04/16 00:24:25;;;;;;;23.92;6.85;;;15.40;30.00;;;;;;4381612;32;20497;-39
2021/04/16 00:26:51;;;;;;;25.23;6.45;;;15.40;30.10;;;;;;4374082;32;20058;-40
2021/04/16 00:29:18;;;;;;;22.73;4.95;;;15.30;30.20;;;;;;4373613;32;20219;-40
2021/04/16 00:31:50;;;;;;;22.25;5.75;;;15.30;30.50;;;;;;4373775;32;20535;-39
2021/04/16 00:34:21;;;;;;;14.57;5.20;;;15.30;30.70;;;;;;4373680;32;20558;-40
2021/04/16 00:36:48;;;;;;;19.80;4.53;;;15.30;30.80;;;;;;4372008;32;20063;-39
2021/04/16 00:39:15;;;;;;;16.75;5.60;;;15.20;30.70;;;;;;4370141;32;20089;-40
2021/04/16 00:41:41;;;;;;;16.40;5.55;;;15.20;30.60;;;;;;4346219;32;20089;-40
2021/04/16 00:44:08;;;;;;;15.68;5.90;;;15.10;30.80;;;;;;4370496;32;20149;-39
2021/04/16 00:46:56;;;;;;;16.45;5.43;;;15.20;30.60;;;;;;4345972;32;20069;-38
2021/04/16 00:49:32;;;;;;;17.48;5.55;;;15.10;30.40;;;;;;4370896;32;20070;-39
2021/04/16 00:52:02;;;;;;;18.95;5.65;;;15.10;30.20;;;;;;4359341;32;20089;-38
2021/04/16 00:54:32;;;;;;;17.05;4.70;;;15.10;30.10;;;;;;4358661;32;20062;-37
2021/04/16 00:56:59;;;;;;;21.12;5.18;;;15.10;30.10;;;;;;4346345;32;20522;-39
2021/04/16 00:59:28;;;;;;;27.77;5.50;;;15.10;30.20;;;;;;4371219;32;20173;-39
2021/04/16 01:01:59;;;;;;;54.58;10.68;;;15.20;30.30;;;;;;4371049;32;20094;-38
2021/04/16 01:04:27;;;;;;;42.42;7.35;;;15.20;31.40;;;;;;4371018;32;20062;-40
2021/04/16 01:06:53;;;;;;;20.02;5.37;;;15.20;30.70;;;;;;4370468;32;20459;-38
2021/04/16 01:09:20;;;;;;;19.58;5.35;;;15.20;30.60;;;;;;4358561;32;20089;-40
2021/04/16 01:11:46;;;;;;;16.05;4.82;;;15.10;30.40;;;;;;4346211;32;20080;-39
2021/04/16 01:14:13;;;;;;;17.37;5.10;;;15.20;30.40;;;;;;4358013;32;20533;-38
2021/04/16 01:16:39;;;;;;;21.90;5.22;;;15.20;30.50;;;;;;4338906;32;20074;-40
2021/04/16 01:19:26;;;;;;;18.12;4.93;;;15.10;30.90;;;;;;4371288;32;20073;-40
2021/04/16 01:22:26;;;;;;;24.50;6.57;;;15.20;31.30;;;;;;4360907;32;20084;-40
2021/04/16 01:24:57;;;;;;;17.42;6.30;;;15.20;31.30;;;;;;4385116;32;20074;-40
2021/04/16 01:27:25;;;;;;;23.73;5.53;;;15.20;31.00;;;;;;4386633;32;20489;-40
2021/04/16 01:29:52;;;;;;;33.35;8.68;;;15.20;31.50;;;;;;4388069;32;20057;-39
2021/04/16 01:32:28;;;;;;;35.28;8.88;;;15.20;32.40;;;;;;4389191;32;20594;-39
2021/04/16 01:34:55;;;;;;;29.55;8.65;;;15.20;32.70;;;;;;4390996;32;20633;-39
2021/04/16 01:37:22;;;;;;;34.53;9.80;;;15.20;33.10;;;;;;4389000;32;20097;-38
2021/04/16 01:39:54;;;;;;;45.47;9.77;;;15.30;32.40;;;;;;4376402;32;20476;-40
2021/04/16 01:42:21;;;;;;;83.78;11.90;;;15.30;32.40;;;;;;4372663;32;20111;-39
2021/04/16 01:44:48;;;;;;;114.68;15.70;;;15.30;32.20;;;;;;4373535;32;20070;-40
2021/04/16 01:47:15;;;;;;;90.93;14.00;;;15.30;32.20;;;;;;4372855;32;20644;-40
2021/04/16 01:49:45;;;;;;;41.80;8.98;;;15.30;32.20;;;;;;4360667;32;20078;-40
2021/04/16 01:52:19;;;;;;;53.35;10.82;;;15.30;32.10;;;;;;4373002;32;20096;-38
2021/04/16 01:54:50;;;;;;;54.95;10.80;;;15.40;32.20;;;;;;4373197;32;20089;-39
2021/04/16 01:57:23;;;;;;;115.28;18.87;;;15.30;32.20;;;;;;4373275;32;20162;-39
2021/04/16 01:59:51;;;;;;;79.87;15.57;;;15.30;32.50;;;;;;4373389;32;20071;-39
2021/04/16 02:02:31;;;;;;;67.32;10.82;;;15.30;32.60;;;;;;4372954;32;20054;-39
2021/04/16 02:04:57;;;;;;;48.97;10.63;;;15.30;32.40;;;;;;4373157;32;20629;-40
2021/04/16 02:07:25;;;;;;;69.75;12.43;;;15.40;32.30;;;;;;4372801;32;20200;-40
2021/04/16 02:09:51;;;;;;;64.60;11.98;;;15.30;32.20;;;;;;4372767;32;20067;-38
2021/04/16 02:12:22;;;;;;;53.35;9.10;;;15.40;32.20;;;;;;4372542;32;20071;-40
2021/04/16 02:14:50;;;;;;;63.87;10.38;;;15.40;32.00;;;;;;4372932;32;20165;-39
2021/04/16 02:17:20;;;;;;;33.33;7.72;;;15.40;32.10;;;;;;4360343;32;20066;-40
2021/04/16 02:19:47;;;;;;;28.15;8.68;;;15.30;32.10;;;;;;4381608;32;20070;-38
2021/04/16 02:22:17;;;;;;;24.23;7.37;;;15.30;32.30;;;;;;4388379;32;20091;-41
2021/04/16 02:24:43;;;;;;;26.98;7.30;;;15.30;32.40;;;;;;4390232;32;20061;-40
2021/04/16 02:27:11;;;;;;;46.00;11.52;;;15.40;32.50;;;;;;4390366;32;20093;-40
2021/04/16 02:29:37;;;;;;;38.47;10.32;;;15.50;33.00;;;;;;4390899;32;20153;-40
2021/04/16 02:32:05;;;;;;;59.92;12.98;;;15.60;33.00;;;;;;4390149;32;20084;-36
2021/04/16 02:34:32;;;;;;;49.53;10.68;;;15.70;33.50;;;;;;4388779;32;20532;-40
2021/04/16 02:37:01;;;;;;;57.72;12.27;;;15.80;33.60;;;;;;4388814;32;20168;-38
2021/04/16 02:39:28;;;;;;;51.85;13.40;;;15.90;33.70;;;;;;4388441;32;20526;-41
2021/04/16 02:41:54;;;;;;;49.65;13.45;;;16.10;33.90;;;;;;4390033;32;20173;-41
2021/04/16 02:44:22;;;;;;;75.28;13.75;;;16.20;33.90;;;;;;4388742;32;20066;-40
2021/04/16 02:46:49;;;;;;;55.25;12.63;;;16.30;33.90;;;;;;4389776;32;20507;-40
2021/04/16 02:49:16;;;;;;;61.13;13.23;;;16.40;33.40;;;;;;4387936;32;20073;-40
2021/04/16 02:51:43;;;;;;;74.60;14.40;;;16.50;33.50;;;;;;4389632;32;20540;-40
2021/04/16 02:54:10;;;;;;;50.30;11.38;;;16.60;33.60;;;;;;4389759;32;20054;-40
2021/04/16 02:56:36;;;;;;;55.83;11.20;;;16.80;33.10;;;;;;4389786;32;20062;-40
2021/04/16 02:59:03;;;;;;;46.10;12.55;;;16.90;32.90;;;;;;4390138;32;20066;-42
2021/04/16 03:01:29;;;;;;;49.45;14.13;;;17.00;33.00;;;;;;4390007;32;20077;-40
2021/04/16 03:03:56;;;;;;;77.65;15.43;;;17.20;33.30;;;;;;4389723;32;20512;-42
2021/04/16 03:06:23;;;;;;;64.72;15.27;;;17.40;33.40;;;;;;4387824;32;20095;-41
2021/04/16 03:08:58;;;;;;;78.10;16.58;;;17.50;33.20;;;;;;4389524;32;20080;-40
2021/04/16 03:11:26;;;;;;;50.30;18.12;;;17.80;33.50;;;;;;4389987;32;20539;-41
2021/04/16 03:13:53;;;;;;;63.42;17.12;;;18.00;33.60;;;;;;4389519;32;20093;-39
2021/04/16 03:16:20;;;;;;;64.03;17.27;;;18.20;33.60;;;;;;4387955;32;20454;-39
2021/04/16 03:18:47;;;;;;;62.13;16.67;;;18.40;33.50;;;;;;4389663;32;20502;-41
2021/04/16 03:21:13;;;;;;;55.75;16.02;;;18.60;32.80;;;;;;4387671;32;20078;-41
2021/04/16 03:23:39;;;;;;;54.25;14.65;;;18.80;32.20;;;;;;4381886;32;20090;-41
2021/04/16 03:26:06;;;;;;;36.85;15.90;;;19.00;31.90;;;;;;4374193;32;20067;-38
2021/04/16 03:28:32;;;;;;;46.08;15.35;;;19.10;31.50;;;;;;4374610;32;20104;-41
2021/04/16 03:30:59;;;;;;;43.83;15.10;;;19.30;31.30;;;;;;4374326;32;20462;-41
2021/04/16 03:33:25;;;;;;;62.33;15.60;;;19.40;30.90;;;;;;4373969;32;20501;-41
2021/04/16 03:35:52;;;;;;;62.58;15.60;;;19.50;30.70;;;;;;4374158;32;20073;-40
2021/04/16 03:38:19;;;;;;;50.22;16.17;;;19.60;30.90;;;;;;4373911;32;20070;-39
2021/04/16 03:40:47;;;;;;;66.80;16.08;;;19.80;31.00;;;;;;4373915;32;20501;-40
2021/04/16 03:43:14;;;;;;;65.70;16.52;;;20.00;30.70;;;;;;4373881;32;20633;-37
2021/04/16 03:45:40;;;;;;;76.70;19.17;;;20.10;30.50;;;;;;4372549;32;20058;-42
2021/04/16 03:48:08;;;;;;;81.22;22.20;;;20.20;30.10;;;;;;4372615;32;20510;-42
2021/04/16 03:50:35;;;;;;;52.42;16.30;;;20.40;29.80;;;;;;4356792;32;20554;-41
2021/04/16 03:53:03;;;;;;;53.30;17.08;;;20.60;29.50;;;;;;4356449;32;20466;-41
2021/04/16 03:55:31;;;;;;;70.18;19.90;;;20.70;29.20;;;;;;4344102;32;20070;-41
2021/04/16 03:57:58;;;;;;;93.78;24.05;;;20.90;29.00;;;;;;4344174;32;20105;-41
2021/04/16 04:00:29;;;;;;;66.30;19.37;;;21.10;29.20;;;;;;4356202;32;20130;-40
2021/04/16 04:02:57;;;;;;;61.05;20.37;;;21.20;28.90;;;;;;4356410;32;20081;-41
2021/04/16 04:05:23;;;;;;;65.07;18.58;;;21.30;28.70;;;;;;4356202;32;20548;-43
2021/04/16 04:07:50;;;;;;;69.57;21.80;;;21.40;28.40;;;;;;4356002;32;20071;-41
2021/04/16 04:10:19;;;;;;;67.70;19.40;;;21.50;28.70;;;;;;4356109;32;20107;-43
2021/04/16 04:12:46;;;;;;;48.80;17.70;;;21.60;27.70;;;;;;4356586;32;20509;-43
2021/04/16 04:15:15;;;;;;;67.80;19.25;;;21.70;27.50;;;;;;4356525;32;20134;-41
2021/04/16 04:17:42;;;;;;;62.35;17.98;;;21.80;27.20;;;;;;4356311;32;20140;-42
2021/04/16 04:20:20;;;;;;;65.37;18.58;;;22.00;27.10;;;;;;4344071;32;20448;-42
2021/04/16 04:22:47;;;;;;;44.80;19.15;;;22.20;26.90;;;;;;4375108;32;20551;-43
2021/04/16 04:25:15;;;;;;;63.17;21.37;;;22.40;26.80;;;;;;4388369;32;20486;-42
2021/04/16 04:27:42;;;;;;;66.50;19.20;;;22.60;26.60;;;;;;4388110;32;20074;-42
2021/04/16 04:30:09;;;;;;;68.55;21.20;;;22.70;26.40;;;;;;4388787;32;20066;-46
2021/04/16 04:32:36;;;;;;;65.37;20.37;;;22.90;26.40;;;;;;4389133;32;20153;-41
2021/04/16 04:35:02;;;;;;;72.37;19.12;;;23.00;26.30;;;;;;4387161;32;20061;-41
2021/04/16 04:37:29;;;;;;;75.62;21.50;;;23.20;26.10;;;;;;4388310;32;20088;-41
2021/04/16 04:39:55;;;;;;;64.55;19.15;;;23.30;26.00;;;;;;4386862;32;20120;-41
2021/04/16 04:42:22;;;;;;;47.62;16.98;;;23.40;25.80;;;;;;4388421;32;20470;-42
2021/04/16 04:44:48;;;;;;;56.35;19.65;;;23.50;25.60;;;;;;4370996;32;20076;-41
2021/04/16 04:47:15;;;;;;;84.87;19.98;;;23.60;25.40;;;;;;4370730;32;20070;-41
2021/04/16 04:49:41;;;;;;;65.95;19.33;;;23.80;25.30;;;;;;4370974;32;20063;-38
2021/04/16 04:52:20;;;;;;;71.05;22.92;;;24.00;25.10;;;;;;4371038;32;20090;-41
2021/04/16 04:54:49;;;;;;;87.15;24.08;;;24.20;24.90;;;;;;4370584;32;20067;-43
2021/04/16 04:57:16;;;;;;;63.65;22.98;;;24.50;24.70;;;;;;4370353;32;20173;-42
2021/04/16 04:59:43;;;;;;;67.10;22.27;;;24.70;24.50;;;;;;4370483;32;20062;-42
2021/04/16 05:02:10;;;;;;;61.22;21.08;;;24.90;24.70;;;;;;4358263;32;20073;-42
2021/04/16 05:04:36;;;;;;;50.83;18.55;;;25.00;24.10;;;;;;4370087;32;20074;-43
2021/04/16 05:07:04;;;;;;;66.60;22.27;;;25.20;23.90;;;;;;4370114;32;20176;-42
2021/04/16 05:09:30;;;;;;;71.22;22.83;;;25.30;23.90;;;;;;4370602;32;20084;-41
2021/04/16 05:11:57;;;;;;;76.93;23.62;;;25.50;23.70;;;;;;4370578;32;20522;-42
2021/04/16 05:14:24;;;;;;;68.18;24.42;;;25.70;23.70;;;;;;4370285;32;20063;-42
2021/04/16 05:16:50;;;;;;;67.00;24.42;;;25.90;23.50;;;;;;4386654;32;20075;-42
2021/04/16 05:19:16;;;;;;;65.87;21.67;;;26.10;23.40;;;;;;4387974;32;20440;-42
2021/04/16 05:21:43;;;;;;;57.20;21.15;;;26.20;23.30;;;;;;4370298;32;20155;-39
2021/04/16 05:24:11;;;;;;;64.68;21.70;;;26.50;23.10;;;;;;4370967;32;20059;-43
2021/04/16 05:26:38;;;;;;;61.83;21.55;;;26.70;23.00;;;;;;4370913;32;20071;-41
2021/04/16 05:29:05;;;;;;;55.78;21.45;;;26.90;23.00;;;;;;4370965;32;20067;-43
2021/04/16 05:31:32;;;;;;;56.95;19.27;;;27.10;23.40;;;;;;4371098;32;20089;-43
2021/04/16 05:33:58;;;;;;;52.70;19.00;;;27.30;22.70;;;;;;4358637;32;20070;-43
2021/04/16 05:36:25;;;;;;;46.88;18.92;;;27.50;22.60;;;;;;4371069;32;20133;-43
2021/04/16 05:38:51;;;;;;;66.65;21.37;;;27.70;22.40;;;;;;4346118;32;20141;-41
2021/04/16 05:41:18;;;;;;;88.72;22.45;;;27.90;22.80;;;;;;4370606;32;20103;-43
2021/04/16 05:43:44;;;;;;;54.78;19.45;;;28.10;23.00;;;;;;4358453;32;20074;-39
2021/04/16 05:46:11;;;;;;;59.08;21.08;;;28.30;22.90;;;;;;4358929;32;20066;-42
2021/04/16 05:48:38;;;;;;;50.42;19.40;;;28.50;23.30;;;;;;4325450;33;20109;-42
2021/04/16 05:51:05;;;;;;;56.15;21.15;;;28.70;22.40;;;;;;4326062;33;20197;-43
2021/04/16 05:53:32;;;;;;;48.05;20.05;;;28.70;22.30;;;;;;4325782;33;20063;-43
2021/04/16 05:55:58;;;;;;;60.97;20.17;;;28.70;22.30;;;;;;4329232;33;20075;-42
2021/04/16 05:58:25;;;;;;;51.47;19.45;;;28.80;22.40;;;;;;4329363;33;20074;-42
2021/04/16 06:00:51;;;;;;;61.88;20.88;;;28.80;22.30;;;;;;4340725;33;20261;-43
2021/04/16 06:03:18;;;;;;;50.15;19.40;;;28.80;22.90;;;;;;4340660;33;20586;-42
2021/04/16 06:05:45;;;;;;;48.50;19.10;;;28.80;22.40;;;;;;4328754;33;20070;-42
2021/04/16 06:08:11;;;;;;;49.03;19.12;;;28.80;22.40;;;;;;4340858;33;20074;-43
2021/04/16 06:10:38;;;;;;;46.15;20.55;;;28.90;22.40;;;;;;4328627;33;20094;-42
2021/04/16 06:13:05;;;;;;;49.08;20.12;;;28.90;22.40;;;;;;4340397;33;20110;-40
2021/04/16 06:15:31;;;;;;;49.03;20.55;;;28.80;22.40;;;;;;4340361;33;20063;-43
2021/04/16 06:17:58;;;;;;;55.58;22.92;;;28.80;22.40;;;;;;4341765;32;20077;-41
2021/04/16 06:20:25;;;;;;;43.03;23.25;;;28.80;22.60;;;;;;4343359;33;20514;-40
2021/04/16 06:22:53;;;;;;;60.28;24.50;;;28.70;22.40;;;;;;4333034;32;20078;-42
2021/04/16 06:25:23;;;;;;;52.13;22.58;;;28.70;22.60;;;;;;4361265;32;20633;-42
2021/04/16 06:27:50;;;;;;;52.67;24.17;;;28.70;22.70;;;;;;4375756;32;20063;-41
2021/04/16 06:30:19;;;;;;;62.53;25.98;;;28.70;22.70;;;;;;4373776;32;20070;-35
2021/04/16 06:33:02;;;;;;;51.70;22.10;;;28.70;22.70;;;;;;4374107;32;20174;-41
2021/04/16 06:35:28;;;;;;;51.80;24.87;;;28.70;22.60;;;;;;4373798;32;20081;-40
2021/04/16 06:37:55;;;;;;;49.50;23.85;;;28.80;22.60;;;;;;4375326;32;20215;-40
2021/04/16 06:40:21;;;;;;;58.80;23.58;;;28.80;22.60;;;;;;4375628;32;20058;-42
2021/04/16 06:42:49;;;;;;;44.97;23.25;;;28.80;22.60;;;;;;4375315;32;20494;-39
2021/04/16 06:45:23;;;;;;;53.15;21.98;;;28.80;22.40;;;;;;4375541;32;20055;-42
2021/04/16 06:48:07;;;;;;;50.63;22.30;;;28.80;22.70;;;;;;4373769;32;20478;-41
2021/04/16 06:50:38;;;;;;;59.00;24.90;;;28.90;22.60;;;;;;4342594;33;20186;-42
2021/04/16 06:53:18;;;;;;;68.82;26.37;;;29.00;22.60;;;;;;4289485;33;20111;-41
2021/04/16 06:56:03;;;;;;;68.03;25.37;;;29.10;22.90;;;;;;4301854;33;20071;-42
2021/04/16 06:58:35;;;;;;;56.78;28.27;;;29.20;22.70;;;;;;4301817;33;20504;-42
2021/04/16 07:01:14;;;;;;;54.67;24.92;;;29.40;22.50;;;;;;4298740;33;20108;-40
2021/04/16 07:03:47;;;;;;;58.97;29.25;;;29.50;22.70;;;;;;4263743;33;20064;-41
2021/04/16 07:06:27;;;;;;;54.40;26.55;;;29.50;22.30;;;;;;4286999;33;20066;-40
2021/04/16 07:09:16;;;;;;;68.05;27.92;;;29.50;22.40;;;;;;4286749;33;20530;-41
2021/04/16 07:11:48;;;;;;;66.53;27.23;;;29.50;22.50;;;;;;4274719;33;20107;-42
2021/04/16 07:14:27;;;;;;;73.28;27.90;;;29.50;22.50;;;;;;4298792;33;20199;-41
2021/04/16 07:16:55;;;;;;;69.60;28.52;;;29.50;22.50;;;;;;4287444;33;20087;-42
2021/04/16 07:19:24;;;;;;;55.78;27.23;;;29.50;22.40;;;;;;4299154;33;20336;-41
2021/04/16 07:22:14;;;;;;;56.85;25.67;;;29.50;22.50;;;;;;4286949;33;20075;-41
2021/04/16 07:24:40;;;;;;;58.83;26.58;;;29.50;22.50;;;;;;4296930;33;20571;-43
2021/04/16 07:27:19;;;;;;;66.60;26.50;;;29.50;22.50;;;;;;4291619;33;20067;-41
2021/04/16 07:29:55;;;;;;;54.30;23.52;;;29.60;22.40;;;;;;4344536;32;20070;-43
2021/04/16 07:32:31;;;;;;;59.17;24.83;;;29.70;22.20;;;;;;4362406;32;20174;-41
2021/04/16 07:35:34;;;;;;;53.22;24.33;;;29.80;22.20;;;;;;4374478;32;20081;-40
2021/04/16 07:38:14;;;;;;;53.92;23.85;;;29.90;22.20;;;;;;4374550;32;20062;-40
2021/04/16 07:40:42;;;;;;;40.05;23.10;;;30.00;22.10;;;;;;4377394;32;20090;-42
2021/04/16 07:43:10;;;;;;;54.05;24.05;;;30.00;22.00;;;;;;4374725;32;20088;-40
2021/04/16 07:45:47;;;;;;;54.08;22.52;;;30.10;22.20;;;;;;4360848;32;20074;-41
2021/04/16 07:48:19;;;;;;;47.67;20.27;;;30.30;21.90;;;;;;4373185;32;20146;-40
2021/04/16 07:50:49;;;;;;;45.08;20.30;;;30.30;21.80;;;;;;4385598;32;20135;-40
2021/04/16 07:53:37;;;;;;;47.60;20.73;;;30.40;21.90;;;;;;4373075;32;20067;-41
2021/04/16 07:56:17;;;;;;;45.08;19.58;;;30.60;22.20;;;;;;4372657;32;20466;-40
2021/04/16 07:58:45;;;;;;;44.25;17.35;;;30.80;21.70;;;;;;4373961;32;20556;-40
2021/04/16 08:01:25;;;;;;;37.45;16.67;;;31.10;21.80;;;;;;4372547;32;20174;-41
2021/04/16 08:04:04;;;;;;;32.83;15.32;;;31.40;21.60;;;;;;4374652;32;20140;-39
2021/04/16 08:06:38;;;;;;;38.25;18.95;;;31.60;21.20;;;;;;4361460;32;20134;-40
2021/04/16 08:09:11;;;;;;;39.13;16.02;;;31.80;21.40;;;;;;4373855;32;20070;-40
2021/04/16 08:11:38;;;;;;;44.08;17.40;;;32.00;21.50;;;;;;4372698;32;20077;-40
2021/04/16 08:14:21;;;;;;;34.42;15.05;;;32.10;21.10;;;;;;4373814;32;20539;-40
2021/04/16 08:17:05;;;;;;;36.47;15.98;;;32.20;21.20;;;;;;4361035;32;20057;-39
2021/04/16 08:19:36;;;;;;;39.10;15.85;;;32.30;21.10;;;;;;4361655;32;20079;-40
2021/04/16 08:22:32;;;;;;;30.42;15.35;;;32.30;20.90;;;;;;4373632;32;20073;-39
2021/04/16 08:25:01;;;;;;;38.47;15.73;;;32.20;21.00;;;;;;4368271;32;20097;-39
2021/04/16 08:27:44;;;;;;;36.30;15.30;;;32.10;21.10;;;;;;4360406;32;20062;-39
2021/04/16 08:30:29;;;;;;;33.35;13.35;;;32.00;21.10;;;;;;4372884;32;20052;-40
2021/04/16 08:33:20;;;;;;;26.00;10.52;;;32.00;21.20;;;;;;4372912;32;20147;-40
2021/04/16 08:35:54;;;;;;;45.22;14.98;;;32.10;20.80;;;;;;4374178;32;20066;-41
2021/04/16 08:38:22;;;;;;;26.00;9.97;;;32.30;21.00;;;;;;4374158;32;20142;-42
2021/04/16 08:40:52;;;;;;;48.72;12.13;;;32.40;20.50;;;;;;4358658;32;20149;-41
2021/04/16 08:43:54;;;;;;;18.75;8.55;;;32.40;20.50;;;;;;4371362;32;20087;-40
2021/04/16 08:46:25;;;;;;;20.80;8.23;;;32.50;20.20;;;;;;4371235;32;20136;-41
2021/04/16 08:48:55;;;;;;;15.20;6.78;;;32.60;20.10;;;;;;4373406;32;20081;-40
2021/04/16 08:51:28;;;;;;;24.67;6.90;;;32.70;19.90;;;;;;4372897;32;20115;-42
2021/04/16 08:54:25;;;;;;;18.77;6.73;;;32.70;19.80;;;;;;4373209;32;20064;-37
2021/04/16 08:57:08;;;;;;;44.63;12.50;;;32.60;19.90;;;;;;4362582;32;20230;-42
2021/04/16 09:00:03;;;;;;;30.27;13.70;;;32.60;20.30;;;;;;4360489;32;20057;-40
2021/04/16 09:02:51;;;;;;;40.35;12.55;;;32.70;20.30;;;;;;4371647;32;20058;-40
2021/04/16 09:05:30;;;;;;;53.05;18.27;;;32.80;19.60;;;;;;4370858;32;20058;-40
2021/04/16 09:08:07;;;;;;;46.53;18.95;;;32.80;20.00;;;;;;4360265;32;20142;-39
2021/04/16 09:10:45;;;;;;;49.58;15.90;;;32.50;21.00;;;;;;4371328;32;20513;-39
2021/04/16 09:13:34;;;;;;;22.62;8.40;;;32.20;19.90;;;;;;4372878;32;20161;-38
2021/04/16 09:16:43;;;;;;;28.75;10.45;;;31.90;19.20;;;;;;4363934;32;20062;-41
2021/04/16 09:19:25;;;;;;;23.23;8.55;;;31.70;20.00;;;;;;4365616;32;20617;-40
2021/04/16 09:22:04;;;;;;;8.55;4.68;;;31.70;19.70;;;;;;4359031;32;20503;-39
2021/04/16 09:24:55;;;;;;;19.30;5.72;;;31.90;19.00;;;;;;4372775;32;20077;-40
2021/04/16 09:27:38;;;;;;;16.85;5.05;;;32.10;19.10;;;;;;4373104;32;20431;-40
2021/04/16 09:30:08;;;;;;;10.05;5.07;;;32.40;18.90;;;;;;4372418;32;20070;-40
2021/04/16 09:32:42;;;;;;;19.35;4.20;;;32.50;18.60;;;;;;4372925;32;20143;-40
2021/04/16 09:35:20;;;;;;;15.50;4.55;;;32.40;18.50;;;;;;4372443;32;20568;-40
2021/04/16 09:37:51;;;;;;;18.50;4.50;;;32.50;18.40;;;;;;4371077;32;20058;-41
2021/04/16 09:40:25;;;;;;;11.75;5.43;;;32.70;18.30;;;;;;4358578;32;20098;-40
2021/04/16 09:43:14;;;;;;;;;;;32.80;18.90;;;;;;4372804;32;20554;-40
2021/04/16 09:45:48;;;;;;;11.85;5.30;;;32.90;18.80;;;;;;4367762;32;20353;-40
2021/04/16 09:48:17;;;;;;;15.13;4.62;;;33.00;18.50;;;;;;4371074;32;20081;-39
2021/04/16 09:50:45;;;;;;;26.60;6.03;;;32.90;18.20;;;;;;4372571;32;20143;-40
2021/04/16 09:53:26;;;;;;;15.50;4.70;;;32.90;18.60;;;;;;4372280;32;20055;-39
2021/04/16 09:55:58;;;;;;;14.18;6.18;;;32.90;18.60;;;;;;4375338;32;20090;-40
2021/04/16 09:58:31;;;;;;;19.67;6.53;;;32.90;18.70;;;;;;4375657;32;20058;-40
2021/04/16 10:00:57;;;;;;;29.15;6.70;;;32.90;18.90;;;;;;4375256;32;20058;-40
2021/04/16 10:03:33;;;;;;;34.25;8.73;;;32.70;19.10;;;;;;4375048;32;20085;-40
2021/04/16 10:06:29;;;;;;;15.25;5.57;;;32.50;19.40;;;;;;4374546;32;20465;-37
2021/04/16 10:09:17;;;;;;;19.20;6.37;;;32.40;19.10;;;;;;4373747;32;20501;-39
2021/04/16 10:11:58;;;;;;;12.55;5.78;;;32.30;19.00;;;;;;4374847;32;20513;-40
2021/04/16 10:14:24;;;;;;;16.58;4.95;;;32.20;19.00;;;;;;4374010;32;20154;-41
2021/04/16 10:16:57;;;;;;;27.77;6.00;;;32.10;19.00;;;;;;4374913;32;20073;-40
2021/04/16 10:19:35;;;;;;;17.50;5.35;;;32.10;18.90;;;;;;4373672;32;20167;-40
2021/04/16 10:22:18;;;;;;;11.88;4.62;;;32.20;18.90;;;;;;4374686;32;20062;-42
2021/04/16 10:57:17;;;;;;;19.67;5.43;;;31.70;19.10;;;;;;4372991;32;20070;-39
2021/04/16 12:39:23;;;;;;;14.90;3.70;;;32.80;21.10;;;;;;4358221;32;19973;-42
2021/04/16 12:41:56;;;;;;;4.53;2.10;;;32.90;20.80;;;;;;4371529;32;20066;-40
2021/04/16 12:44:35;;;;;;;7.62;1.58;;;32.80;21.00;;;;;;4359048;32;20082;-41
2021/04/16 12:47:14;;;;;;;12.10;3.15;;;32.80;21.00;;;;;;4372902;32;20093;-42
2021/04/16 12:49:40;;;;;;;16.70;4.45;;;32.80;21.20;;;;;;4373154;32;20086;-43
2021/04/16 12:52:07;;;;;;;23.87;5.80;;;32.80;21.10;;;;;;4373430;32;20497;-42
2021/04/16 12:54:38;;;;;;;14.10;4.47;;;32.80;21.00;;;;;;4371473;32;20084;-40
2021/04/16 12:57:06;;;;;;;22.17;3.75;;;33.00;21.30;;;;;;4371387;32;20146;-41
2021/04/16 12:59:35;;;;;;;24.95;2.40;;;33.00;21.40;;;;;;4372693;32;20073;-41
2021/04/16 13:02:01;;;;;;;10.50;3.97;;;33.00;21.30;;;;;;4346523;32;20066;-43
2021/04/16 13:04:28;;;;;;;6.87;3.85;;;32.90;21.30;;;;;;4358759;32;20590;-43
2021/04/16 13:06:59;;;;;;;10.32;2.30;;;32.70;20.60;;;;;;4370962;32;20098;-42
2021/04/16 13:09:25;;;;;;;9.45;3.00;;;32.50;21.10;;;;;;4359265;32;20069;-40
2021/04/16 13:11:52;;;;;;;11.88;3.40;;;32.40;21.40;;;;;;4372758;32;20070;-40
2021/04/16 13:14:19;;;;;;;5.45;2.12;;;32.20;22.10;;;;;;4371249;32;20054;-40
2021/04/16 13:16:45;;;;;;;8.02;2.83;;;32.00;21.80;;;;;;4372742;32;20061;-40
2021/04/16 13:19:34;;;;;;;6.97;2.10;;;32.00;21.80;;;;;;4371204;32;20137;-40
2021/04/16 13:22:15;;;;;;;4.55;1.17;;;31.90;21.70;;;;;;4372458;32;20089;-39
2021/04/16 13:24:43;;;;;;;4.55;2.03;;;31.80;21.30;;;;;;4386134;32;20058;-41
2021/04/16 13:27:13;;;;;;;15.40;3.70;;;31.80;20.70;;;;;;4357348;32;20090;-41
2021/04/16 13:29:40;;;;;;;2.67;1.50;;;31.70;20.80;;;;;;4373464;32;20073;-40
2021/04/16 13:32:10;;;;;;;14.45;3.58;;;31.70;21.00;;;;;;4373471;32;20066;-43
2021/04/16 13:34:39;;;;;;;11.60;5.68;;;31.60;21.30;;;;;;4324794;32;20506;-41
2021/04/16 13:37:06;;;;;;;16.37;4.28;;;31.60;21.30;;;;;;4373027;32;20070;-41
2021/04/16 13:39:32;;;;;;;9.10;3.97;;;31.40;21.20;;;;;;4372803;32;20159;-39
2021/04/16 13:41:59;;;;;;;9.75;3.08;;;31.30;21.50;;;;;;4372316;32;20081;-39
2021/04/16 13:44:25;;;;;;;11.57;2.80;;;31.10;21.50;;;;;;4360726;32;20530;-41
2021/04/16 13:46:52;;;;;;;20.98;4.20;;;31.10;21.90;;;;;;4360891;32;20071;-41
2021/04/16 13:49:21;;;;;;;9.85;1.52;;;31.00;21.80;;;;;;4372762;32;20065;-39
2021/04/16 13:51:48;;;;;;;17.35;2.75;;;31.00;21.60;;;;;;4360367;32;20073;-42
2021/04/16 13:54:14;;;;;;;14.50;3.22;;;30.70;21.60;;;;;;4372890;32;20739;-40
2021/04/16 13:56:41;;;;;;;28.15;4.00;;;30.60;21.80;;;;;;4373099;32;20128;-43
2021/04/16 13:59:07;;;;;;;11.63;2.12;;;30.50;22.00;;;;;;4360959;32;20085;-41
2021/04/16 14:01:34;;;;;;;15.82;2.53;;;30.20;22.20;;;;;;4372727;32;20626;-42
2021/04/16 14:04:06;;;;;;;13.55;2.58;;;30.00;22.30;;;;;;4366114;32;20130;-42
2021/04/16 14:06:37;;;;;;;18.83;1.90;;;29.90;22.40;;;;;;4389032;32;20573;-43
2021/04/16 14:09:15;;;;;;;9.57;2.50;;;29.80;22.50;;;;;;4388698;32;20566;-40
2021/04/16 14:11:42;;;;;;;10.10;1.67;;;29.70;22.70;;;;;;4390457;32;20481;-41
2021/04/16 14:14:13;;;;;;;1.80;0.73;;;29.50;23.00;;;;;;4389913;32;20070;-42
2021/04/16 14:16:44;;;;;;;5.90;1.45;;;29.40;23.00;;;;;;4390673;32;20051;-44
2021/04/16 14:19:24;;;;;;;3.03;1.17;;;29.40;23.20;;;;;;4390310;32;20080;-42
2021/04/16 14:21:53;;;;;;;14.20;2.80;;;29.20;23.40;;;;;;4360935;32;20070;-43
2021/04/16 14:24:20;;;;;;;26.37;3.25;;;29.00;23.50;;;;;;4360931;32;20070;-41
2021/04/16 14:26:48;;;;;;;40.00;5.93;;;28.90;23.60;;;;;;4358126;32;20515;-41
2021/04/16 14:29:15;;;;;;;11.55;2.15;;;28.60;23.80;;;;;;4357602;32;20546;-42
2021/04/16 14:31:42;;;;;;;1.85;0.82;;;28.30;23.90;;;;;;4357807;32;20071;-42
2021/04/16 14:34:15;;;;;;;6.57;1.42;;;28.30;24.10;;;;;;4357267;32;20544;-42
2021/04/16 14:36:41;;;;;;;5.18;1.27;;;28.30;24.30;;;;;;4357460;32;20075;-41
2021/04/16 14:39:08;;;;;;;3.65;1.12;;;28.30;24.40;;;;;;4357042;32;20152;-43
2021/04/16 14:41:35;;;;;;;7.57;1.40;;;28.20;24.50;;;;;;4332050;32;20113;-42
2021/04/16 14:44:03;;;;;;;9.25;2.00;;;28.20;24.70;;;;;;4357238;32;20163;-41
2021/04/16 14:46:30;;;;;;;21.55;3.40;;;28.00;24.80;;;;;;4356962;32;20070;-42
2021/04/16 14:48:56;;;;;;;9.70;2.25;;;27.70;24.90;;;;;;4357399;32;20097;-47
2021/04/16 14:51:28;;;;;;;8.27;1.30;;;27.50;25.20;;;;;;4344650;32;20090;-43
2021/04/16 14:54:01;;;;;;;6.07;1.12;;;27.30;25.30;;;;;;4332837;32;20085;-40
2021/04/16 14:56:27;;;;;;;2.72;1.05;;;27.20;25.50;;;;;;4357100;32;20073;-43
2021/04/16 14:59:05;;;;;;;12.37;1.83;;;27.20;25.50;;;;;;4328159;32;20600;-43
2021/04/16 15:01:31;;;;;;;8.48;1.75;;;27.10;25.70;;;;;;4372489;32;20054;-44
2021/04/16 15:03:59;;;;;;;6.60;1.83;;;27.00;25.90;;;;;;4374328;32;20089;-43
2021/04/16 15:06:28;;;;;;;6.95;2.05;;;26.80;26.00;;;;;;4372406;32;20054;-44